sensor_id;sensor_type;location;lat;lon;timestamp;temperature;humidity
65582;DHT22;52231;40.090;18.348;2023-07-29T00:01:35;21.80;77.50
65582;DHT22;52231;40.090;18.348;2023-07-29T00:04:04;21.80;77.60
65582;DHT22;52231;40.090;18.348;2023-07-29T00:06:32;21.80;77.90
65582;DHT22;52231;40.090;18.348;2023-07-29T00:09:01;21.80;77.70
65582;DHT22;52231;40.090;18.348;2023-07-29T00:11:30;21.80;77.20
65582;DHT22;52231;40.090;18.348;2023-07-29T00:14:01;21.80;77.00
65582;DHT22;52231;40.090;18.348;2023-07-29T00:16:29;21.80;76.90
65582;DHT22;52231;40.090;18.348;2023-07-29T00:18:59;21.70;76.70
65582;DHT22;52231;40.090;18.348;2023-07-29T00:21:27;21.70;76.90
65582;DHT22;52231;40.090;18.348;2023-07-29T00:23:55;21.60;76.90
65582;DHT22;52231;40.090;18.348;2023-07-29T00:26:25;21.60;77.00
65582;DHT22;52231;40.090;18.348;2023-07-29T00:28:56;21.50;77.10
65582;DHT22;52231;40.090;18.348;2023-07-29T00:31:24;21.40;77.40
65582;DHT22;52231;40.090;18.348;2023-07-29T00:33:53;21.40;77.20
65582;DHT22;52231;40.090;18.348;2023-07-29T00:36:21;21.30;77.20
65582;DHT22;52231;40.090;18.348;2023-07-29T00:38:51;21.30;77.50
65582;DHT22;52231;40.090;18.348;2023-07-29T00:41:22;21.20;78.00
65582;DHT22;52231;40.090;18.348;2023-07-29T00:43:53;21.10;78.40
65582;DHT22;52231;40.090;18.348;2023-07-29T00:46:23;21.00;78.70
65582;DHT22;52231;40.090;18.348;2023-07-29T00:48:52;21.00;79.00
65582;DHT22;52231;40.090;18.348;2023-07-29T00:51:20;21.10;79.20
65582;DHT22;52231;40.090;18.348;2023-07-29T00:53:51;21.00;79.00
65582;DHT22;52231;40.090;18.348;2023-07-29T00:56:20;21.00;78.90
65582;DHT22;52231;40.090;18.348;2023-07-29T00:58:49;20.90;79.00
65582;DHT22;52231;40.090;18.348;2023-07-29T01:09:31;21.00;79.40
65582;DHT22;52231;40.090;18.348;2023-07-29T01:12:16;20.90;79.00
65582;DHT22;52231;40.090;18.348;2023-07-29T01:14:55;20.90;78.70
65582;DHT22;52231;40.090;18.348;2023-07-29T01:17:48;20.80;78.90
65582;DHT22;52231;40.090;18.348;2023-07-29T01:20:19;20.80;79.30
65582;DHT22;52231;40.090;18.348;2023-07-29T01:22:48;20.80;79.80
65582;DHT22;52231;40.090;18.348;2023-07-29T01:25:16;20.80;79.40
65582;DHT22;52231;40.090;18.348;2023-07-29T01:27:48;20.80;79.60
65582;DHT22;52231;40.090;18.348;2023-07-29T01:30:17;20.90;79.30
65582;DHT22;52231;40.090;18.348;2023-07-29T01:32:55;20.90;79.10
65582;DHT22;52231;40.090;18.348;2023-07-29T01:35:33;20.80;78.90
65582;DHT22;52231;40.090;18.348;2023-07-29T01:38:13;20.80;79.00
65582;DHT22;52231;40.090;18.348;2023-07-29T01:40:42;20.80;79.30
65582;DHT22;52231;40.090;18.348;2023-07-29T01:43:12;20.70;79.30
65582;DHT22;52231;40.090;18.348;2023-07-29T01:55:12;20.60;79.60
65582;DHT22;52231;40.090;18.348;2023-07-29T01:57:40;20.60;79.00
65582;DHT22;52231;40.090;18.348;2023-07-29T02:00:09;20.50;79.00
65582;DHT22;52231;40.090;18.348;2023-07-29T02:02:41;20.40;79.40
65582;DHT22;52231;40.090;18.348;2023-07-29T02:05:09;20.40;79.70
65582;DHT22;52231;40.090;18.348;2023-07-29T02:07:37;20.30;80.40
65582;DHT22;52231;40.090;18.348;2023-07-29T02:10:05;20.30;80.90
65582;DHT22;52231;40.090;18.348;2023-07-29T02:12:34;20.30;80.90
65582;DHT22;52231;40.090;18.348;2023-07-29T02:15:03;20.40;80.60
65582;DHT22;52231;40.090;18.348;2023-07-29T02:17:32;20.30;80.60
65582;DHT22;52231;40.090;18.348;2023-07-29T02:20:00;20.30;80.30
65582;DHT22;52231;40.090;18.348;2023-07-29T02:22:28;20.30;80.60
65582;DHT22;52231;40.090;18.348;2023-07-29T02:24:56;20.30;80.60
65582;DHT22;52231;40.090;18.348;2023-07-29T02:27:24;20.20;80.50
65582;DHT22;52231;40.090;18.348;2023-07-29T02:29:54;20.20;80.80
65582;DHT22;52231;40.090;18.348;2023-07-29T02:32:22;20.20;81.00
65582;DHT22;52231;40.090;18.348;2023-07-29T02:34:51;20.20;81.50
65582;DHT22;52231;40.090;18.348;2023-07-29T02:37:19;20.20;81.30
65582;DHT22;52231;40.090;18.348;2023-07-29T02:39:47;20.20;81.80
65582;DHT22;52231;40.090;18.348;2023-07-29T02:42:16;20.20;81.50
65582;DHT22;52231;40.090;18.348;2023-07-29T02:44:44;20.20;81.20
65582;DHT22;52231;40.090;18.348;2023-07-29T02:47:12;20.20;81.50
65582;DHT22;52231;40.090;18.348;2023-07-29T02:49:40;20.10;81.50
65582;DHT22;52231;40.090;18.348;2023-07-29T02:52:08;20.10;81.60
65582;DHT22;52231;40.090;18.348;2023-07-29T02:54:36;20.10;81.60
65582;DHT22;52231;40.090;18.348;2023-07-29T02:57:04;20.10;82.00
65582;DHT22;52231;40.090;18.348;2023-07-29T02:59:32;20.10;82.00
65582;DHT22;52231;40.090;18.348;2023-07-29T03:02:01;20.10;82.30
65582;DHT22;52231;40.090;18.348;2023-07-29T03:07:50;20.10;82.30
65582;DHT22;52231;40.090;18.348;2023-07-29T03:15:08;20.10;81.70
65582;DHT22;52231;40.090;18.348;2023-07-29T03:17:55;20.00;81.60
65582;DHT22;52231;40.090;18.348;2023-07-29T03:20:23;20.00;81.60
65582;DHT22;52231;40.090;18.348;2023-07-29T03:22:51;20.00;81.60
65582;DHT22;52231;40.090;18.348;2023-07-29T03:25:20;19.90;81.40
65582;DHT22;52231;40.090;18.348;2023-07-29T03:27:48;19.90;81.30
65582;DHT22;52231;40.090;18.348;2023-07-29T03:30:21;19.90;81.20
65582;DHT22;52231;40.090;18.348;2023-07-29T03:32:50;19.90;81.10
65582;DHT22;52231;40.090;18.348;2023-07-29T03:35:18;19.90;81.10
65582;DHT22;52231;40.090;18.348;2023-07-29T03:37:47;19.90;80.90
65582;DHT22;52231;40.090;18.348;2023-07-29T03:40:15;19.80;80.90
65582;DHT22;52231;40.090;18.348;2023-07-29T03:42:43;19.80;80.90
65582;DHT22;52231;40.090;18.348;2023-07-29T03:45:11;19.80;81.20
65582;DHT22;52231;40.090;18.348;2023-07-29T03:47:39;19.80;81.30
65582;DHT22;52231;40.090;18.348;2023-07-29T03:50:08;19.80;81.00
65582;DHT22;52231;40.090;18.348;2023-07-29T03:52:36;19.80;80.80
65582;DHT22;52231;40.090;18.348;2023-07-29T03:55:04;19.90;81.20
65582;DHT22;52231;40.090;18.348;2023-07-29T03:57:33;19.90;81.30
65582;DHT22;52231;40.090;18.348;2023-07-29T04:00:01;20.00;81.90
65582;DHT22;52231;40.090;18.348;2023-07-29T04:02:31;20.10;81.80
65582;DHT22;52231;40.090;18.348;2023-07-29T04:04:59;20.20;81.50
65582;DHT22;52231;40.090;18.348;2023-07-29T04:07:28;20.30;81.20
65582;DHT22;52231;40.090;18.348;2023-07-29T04:09:56;20.30;81.00
65582;DHT22;52231;40.090;18.348;2023-07-29T04:12:24;20.40;81.10
65582;DHT22;52231;40.090;18.348;2023-07-29T04:14:52;20.50;81.10
65582;DHT22;52231;40.090;18.348;2023-07-29T04:17:20;20.60;81.30
65582;DHT22;52231;40.090;18.348;2023-07-29T04:19:49;20.70;80.90
65582;DHT22;52231;40.090;18.348;2023-07-29T04:22:18;20.80;80.40
65582;DHT22;52231;40.090;18.348;2023-07-29T04:24:48;20.90;80.00
65582;DHT22;52231;40.090;18.348;2023-07-29T04:27:16;21.00;79.70
65582;DHT22;52231;40.090;18.348;2023-07-29T04:29:44;21.10;79.30
65582;DHT22;52231;40.090;18.348;2023-07-29T04:32:12;21.30;79.00
65582;DHT22;52231;40.090;18.348;2023-07-29T04:34:42;21.50;78.80
65582;DHT22;52231;40.090;18.348;2023-07-29T04:37:10;21.80;78.60
65582;DHT22;52231;40.090;18.348;2023-07-29T04:39:39;22.30;77.90
65582;DHT22;52231;40.090;18.348;2023-07-29T04:42:07;22.90;76.50
65582;DHT22;52231;40.090;18.348;2023-07-29T04:44:35;23.40;75.20
65582;DHT22;52231;40.090;18.348;2023-07-29T04:47:03;24.00;73.80
65582;DHT22;52231;40.090;18.348;2023-07-29T04:49:31;24.70;72.60
65582;DHT22;52231;40.090;18.348;2023-07-29T04:51:59;25.20;71.00
65582;DHT22;52231;40.090;18.348;2023-07-29T04:54:27;25.60;69.90
65582;DHT22;52231;40.090;18.348;2023-07-29T04:56:55;26.00;68.90
65582;DHT22;52231;40.090;18.348;2023-07-29T04:59:23;26.30;67.90
65582;DHT22;52231;40.090;18.348;2023-07-29T05:01:51;26.60;67.60
65582;DHT22;52231;40.090;18.348;2023-07-29T05:04:21;26.70;66.90
65582;DHT22;52231;40.090;18.348;2023-07-29T05:06:49;26.80;67.70
65582;DHT22;52231;40.090;18.348;2023-07-29T05:09:19;26.90;67.90
65582;DHT22;52231;40.090;18.348;2023-07-29T05:11:50;27.10;68.50
65582;DHT22;52231;40.090;18.348;2023-07-29T05:14:18;27.30;68.30
65582;DHT22;52231;40.090;18.348;2023-07-29T05:16:46;27.40;68.30
65582;DHT22;52231;40.090;18.348;2023-07-29T05:19:16;27.70;68.20
65582;DHT22;52231;40.090;18.348;2023-07-29T05:21:44;27.80;68.10
65582;DHT22;52231;40.090;18.348;2023-07-29T05:24:14;27.90;68.40
65582;DHT22;52231;40.090;18.348;2023-07-29T05:26:42;28.10;68.20
65582;DHT22;52231;40.090;18.348;2023-07-29T05:29:10;28.20;68.00
65582;DHT22;52231;40.090;18.348;2023-07-29T05:31:38;28.50;67.50
65582;DHT22;52231;40.090;18.348;2023-07-29T05:34:07;28.90;66.50
65582;DHT22;52231;40.090;18.348;2023-07-29T05:36:36;29.10;65.70
65582;DHT22;52231;40.090;18.348;2023-07-29T05:39:04;29.40;65.10
65582;DHT22;52231;40.090;18.348;2023-07-29T05:41:32;29.60;64.50
65582;DHT22;52231;40.090;18.348;2023-07-29T05:44:01;29.90;64.10
65582;DHT22;52231;40.090;18.348;2023-07-29T05:46:29;30.20;63.40
65582;DHT22;52231;40.090;18.348;2023-07-29T05:48:57;30.60;62.30
65582;DHT22;52231;40.090;18.348;2023-07-29T05:51:25;30.70;61.70
65582;DHT22;52231;40.090;18.348;2023-07-29T05:53:53;30.80;61.50
65582;DHT22;52231;40.090;18.348;2023-07-29T05:56:21;30.80;61.40
65582;DHT22;52231;40.090;18.348;2023-07-29T05:58:52;30.90;61.30
65582;DHT22;52231;40.090;18.348;2023-07-29T06:01:20;31.10;61.10
65582;DHT22;52231;40.090;18.348;2023-07-29T06:03:49;31.30;60.80
65582;DHT22;52231;40.090;18.348;2023-07-29T06:06:18;31.40;60.30
65582;DHT22;52231;40.090;18.348;2023-07-29T06:08:46;31.40;58.70
65582;DHT22;52231;40.090;18.348;2023-07-29T06:11:14;31.30;58.70
65582;DHT22;52231;40.090;18.348;2023-07-29T06:13:42;31.30;59.70
65582;DHT22;52231;40.090;18.348;2023-07-29T06:16:11;31.30;59.10
65582;DHT22;52231;40.090;18.348;2023-07-29T06:18:42;31.40;58.20
65582;DHT22;52231;40.090;18.348;2023-07-29T06:21:10;31.70;56.70
65582;DHT22;52231;40.090;18.348;2023-07-29T06:23:40;32.00;55.10
65582;DHT22;52231;40.090;18.348;2023-07-29T06:26:08;32.00;54.40
65582;DHT22;52231;40.090;18.348;2023-07-29T06:28:36;31.90;53.80
65582;DHT22;52231;40.090;18.348;2023-07-29T06:31:04;32.00;52.90
65582;DHT22;52231;40.090;18.348;2023-07-29T06:33:33;32.20;51.80
65582;DHT22;52231;40.090;18.348;2023-07-29T06:36:01;32.20;50.70
65582;DHT22;52231;40.090;18.348;2023-07-29T06:38:29;32.30;50.90
65582;DHT22;52231;40.090;18.348;2023-07-29T06:40:57;32.70;50.10
65582;DHT22;52231;40.090;18.348;2023-07-29T06:43:25;32.80;48.90
65582;DHT22;52231;40.090;18.348;2023-07-29T06:45:56;33.00;49.00
65582;DHT22;52231;40.090;18.348;2023-07-29T06:48:24;33.00;46.80
65582;DHT22;52231;40.090;18.348;2023-07-29T06:50:52;33.10;47.20
65582;DHT22;52231;40.090;18.348;2023-07-29T06:53:22;33.30;45.90
65582;DHT22;52231;40.090;18.348;2023-07-29T06:55:51;33.10;44.70
65582;DHT22;52231;40.090;18.348;2023-07-29T06:58:19;33.20;46.40
65582;DHT22;52231;40.090;18.348;2023-07-29T07:00:47;33.40;46.10
65582;DHT22;52231;40.090;18.348;2023-07-29T07:03:15;33.40;46.10
65582;DHT22;52231;40.090;18.348;2023-07-29T07:05:43;33.20;46.60
65582;DHT22;52231;40.090;18.348;2023-07-29T07:08:11;33.40;46.40
65582;DHT22;52231;40.090;18.348;2023-07-29T07:10:39;33.40;44.60
65582;DHT22;52231;40.090;18.348;2023-07-29T07:13:08;33.60;43.70
65582;DHT22;52231;40.090;18.348;2023-07-29T07:15:36;33.50;44.00
65582;DHT22;52231;40.090;18.348;2023-07-29T07:18:04;33.70;43.40
65582;DHT22;52231;40.090;18.348;2023-07-29T07:20:32;33.90;42.40
65582;DHT22;52231;40.090;18.348;2023-07-29T07:23:00;34.10;42.00
65582;DHT22;52231;40.090;18.348;2023-07-29T07:25:28;34.30;42.20
65582;DHT22;52231;40.090;18.348;2023-07-29T07:27:56;34.40;41.10
65582;DHT22;52231;40.090;18.348;2023-07-29T07:30:24;34.50;40.60
65582;DHT22;52231;40.090;18.348;2023-07-29T07:32:52;34.80;39.80
65582;DHT22;52231;40.090;18.348;2023-07-29T07:35:21;34.80;38.40
65582;DHT22;52231;40.090;18.348;2023-07-29T07:37:50;34.80;38.80
65582;DHT22;52231;40.090;18.348;2023-07-29T07:40:18;35.00;38.80
65582;DHT22;52231;40.090;18.348;2023-07-29T07:42:46;35.10;37.80
65582;DHT22;52231;40.090;18.348;2023-07-29T07:45:14;35.30;37.30
65582;DHT22;52231;40.090;18.348;2023-07-29T07:47:42;35.40;37.50
65582;DHT22;52231;40.090;18.348;2023-07-29T07:50:10;35.50;37.70
65582;DHT22;52231;40.090;18.348;2023-07-29T07:52:39;35.80;36.70
65582;DHT22;52231;40.090;18.348;2023-07-29T07:55:07;35.80;37.50
65582;DHT22;52231;40.090;18.348;2023-07-29T07:57:36;35.80;36.30
65582;DHT22;52231;40.090;18.348;2023-07-29T08:00:04;35.80;36.20
65582;DHT22;52231;40.090;18.348;2023-07-29T08:02:39;36.00;36.10
65582;DHT22;52231;40.090;18.348;2023-07-29T08:05:08;36.30;35.80
65582;DHT22;52231;40.090;18.348;2023-07-29T08:07:36;36.80;35.00
65582;DHT22;52231;40.090;18.348;2023-07-29T08:10:05;37.30;34.20
65582;DHT22;52231;40.090;18.348;2023-07-29T08:12:34;37.40;32.90
65582;DHT22;52231;40.090;18.348;2023-07-29T08:15:04;37.60;32.90
65582;DHT22;52231;40.090;18.348;2023-07-29T08:17:33;37.80;33.30
65582;DHT22;52231;40.090;18.348;2023-07-29T08:20:02;37.90;34.20
65582;DHT22;52231;40.090;18.348;2023-07-29T08:22:33;37.70;33.50
65582;DHT22;52231;40.090;18.348;2023-07-29T08:25:28;37.70;33.30
65582;DHT22;52231;40.090;18.348;2023-07-29T08:27:57;38.10;33.20
65582;DHT22;52231;40.090;18.348;2023-07-29T08:30:25;37.80;34.40
65582;DHT22;52231;40.090;18.348;2023-07-29T08:32:53;37.80;35.80
65582;DHT22;52231;40.090;18.348;2023-07-29T08:35:21;37.90;35.20
65582;DHT22;52231;40.090;18.348;2023-07-29T08:37:49;37.80;34.10
65582;DHT22;52231;40.090;18.348;2023-07-29T08:40:17;37.80;33.70
65582;DHT22;52231;40.090;18.348;2023-07-29T08:42:47;37.50;32.60
65582;DHT22;52231;40.090;18.348;2023-07-29T08:45:17;37.60;33.60
65582;DHT22;52231;40.090;18.348;2023-07-29T08:47:46;37.70;33.20
65582;DHT22;52231;40.090;18.348;2023-07-29T08:50:15;37.50;32.90
65582;DHT22;52231;40.090;18.348;2023-07-29T08:52:44;37.70;33.30
65582;DHT22;52231;40.090;18.348;2023-07-29T09:04:45;37.60;32.10
65582;DHT22;52231;40.090;18.348;2023-07-29T09:11:30;38.40;30.90
65582;DHT22;52231;40.090;18.348;2023-07-29T09:13:59;38.20;30.20
65582;DHT22;52231;40.090;18.348;2023-07-29T09:16:27;38.20;31.40
65582;DHT22;52231;40.090;18.348;2023-07-29T09:18:55;38.40;30.30
65582;DHT22;52231;40.090;18.348;2023-07-29T09:21:25;38.70;29.20
65582;DHT22;52231;40.090;18.348;2023-07-29T09:23:55;38.90;29.00
65582;DHT22;52231;40.090;18.348;2023-07-29T09:26:27;39.00;28.20
65582;DHT22;52231;40.090;18.348;2023-07-29T09:28:56;39.40;28.10
65582;DHT22;52231;40.090;18.348;2023-07-29T09:31:26;39.50;27.40
65582;DHT22;52231;40.090;18.348;2023-07-29T09:34:01;39.40;28.00
65582;DHT22;52231;40.090;18.348;2023-07-29T09:36:33;39.30;28.60
65582;DHT22;52231;40.090;18.348;2023-07-29T09:39:02;39.30;29.10
65582;DHT22;52231;40.090;18.348;2023-07-29T09:41:31;39.00;29.30
65582;DHT22;52231;40.090;18.348;2023-07-29T09:44:00;38.50;29.20
65582;DHT22;52231;40.090;18.348;2023-07-29T09:46:38;38.10;30.80
65582;DHT22;52231;40.090;18.348;2023-07-29T09:49:07;38.00;31.60
65582;DHT22;52231;40.090;18.348;2023-07-29T09:51:39;38.00;30.60
65582;DHT22;52231;40.090;18.348;2023-07-29T09:54:08;38.50;30.10
65582;DHT22;52231;40.090;18.348;2023-07-29T09:56:41;38.80;29.50
65582;DHT22;52231;40.090;18.348;2023-07-29T09:59:34;39.00;28.90
65582;DHT22;52231;40.090;18.348;2023-07-29T10:02:04;39.30;29.00
65582;DHT22;52231;40.090;18.348;2023-07-29T10:04:34;39.00;29.40
65582;DHT22;52231;40.090;18.348;2023-07-29T10:07:03;39.20;28.40
65582;DHT22;52231;40.090;18.348;2023-07-29T10:09:33;38.60;29.20
65582;DHT22;52231;40.090;18.348;2023-07-29T10:12:02;38.40;29.90
65582;DHT22;52231;40.090;18.348;2023-07-29T10:14:32;38.50;29.10
65582;DHT22;52231;40.090;18.348;2023-07-29T10:17:00;38.30;29.90
65582;DHT22;52231;40.090;18.348;2023-07-29T10:19:31;38.30;29.60
65582;DHT22;52231;40.090;18.348;2023-07-29T10:21:59;38.50;29.20
65582;DHT22;52231;40.090;18.348;2023-07-29T10:24:32;38.50;29.10
65582;DHT22;52231;40.090;18.348;2023-07-29T10:27:01;38.40;29.40
65582;DHT22;52231;40.090;18.348;2023-07-29T10:29:37;38.30;29.00
65582;DHT22;52231;40.090;18.348;2023-07-29T10:32:07;38.10;29.30
65582;DHT22;52231;40.090;18.348;2023-07-29T10:34:36;38.00;29.30
65582;DHT22;52231;40.090;18.348;2023-07-29T10:37:04;38.30;29.30
65582;DHT22;52231;40.090;18.348;2023-07-29T10:39:54;38.30;29.70
65582;DHT22;52231;40.090;18.348;2023-07-29T10:42:22;38.40;29.40
65582;DHT22;52231;40.090;18.348;2023-07-29T10:44:52;38.00;29.90
65582;DHT22;52231;40.090;18.348;2023-07-29T10:47:25;37.50;30.70
65582;DHT22;52231;40.090;18.348;2023-07-29T10:49:58;37.60;30.60
65582;DHT22;52231;40.090;18.348;2023-07-29T10:55:04;38.20;29.40
65582;DHT22;52231;40.090;18.348;2023-07-29T10:57:50;38.60;29.10
65582;DHT22;52231;40.090;18.348;2023-07-29T11:00:21;37.90;29.40
65582;DHT22;52231;40.090;18.348;2023-07-29T11:03:01;38.10;29.70
65582;DHT22;52231;40.090;18.348;2023-07-29T11:05:51;38.30;29.80
65582;DHT22;52231;40.090;18.348;2023-07-29T11:08:37;38.50;29.00
65582;DHT22;52231;40.090;18.348;2023-07-29T11:11:08;38.70;29.50
65582;DHT22;52231;40.090;18.348;2023-07-29T11:13:39;38.80;29.20
65582;DHT22;52231;40.090;18.348;2023-07-29T11:16:10;38.70;29.30
65582;DHT22;52231;40.090;18.348;2023-07-29T11:18:44;38.80;28.90
65582;DHT22;52231;40.090;18.348;2023-07-29T11:21:14;39.10;28.90
65582;DHT22;52231;40.090;18.348;2023-07-29T11:23:42;39.60;27.50
65582;DHT22;52231;40.090;18.348;2023-07-29T11:26:10;40.00;27.40
65582;DHT22;52231;40.090;18.348;2023-07-29T11:28:39;40.20;26.70
65582;DHT22;52231;40.090;18.348;2023-07-29T11:31:08;39.60;27.80
65582;DHT22;52231;40.090;18.348;2023-07-29T11:33:39;39.30;27.90
65582;DHT22;52231;40.090;18.348;2023-07-29T11:36:17;39.20;28.50
65582;DHT22;52231;40.090;18.348;2023-07-29T11:38:46;39.20;28.40
65582;DHT22;52231;40.090;18.348;2023-07-29T11:41:19;38.80;29.10
65582;DHT22;52231;40.090;18.348;2023-07-29T11:43:49;38.70;28.90
65582;DHT22;52231;40.090;18.348;2023-07-29T11:46:21;38.90;29.20
65582;DHT22;52231;40.090;18.348;2023-07-29T11:48:50;38.90;29.20
65582;DHT22;52231;40.090;18.348;2023-07-29T11:51:19;39.10;28.80
65582;DHT22;52231;40.090;18.348;2023-07-29T11:53:47;39.30;28.50
65582;DHT22;52231;40.090;18.348;2023-07-29T11:56:15;39.80;29.00
65582;DHT22;52231;40.090;18.348;2023-07-29T11:58:44;40.10;28.10
65582;DHT22;52231;40.090;18.348;2023-07-29T12:01:13;40.20;27.70
65582;DHT22;52231;40.090;18.348;2023-07-29T12:03:41;40.30;27.60
65582;DHT22;52231;40.090;18.348;2023-07-29T12:06:11;40.50;27.10
65582;DHT22;52231;40.090;18.348;2023-07-29T12:08:39;40.90;26.90
65582;DHT22;52231;40.090;18.348;2023-07-29T12:11:11;41.00;26.10
65582;DHT22;52231;40.090;18.348;2023-07-29T12:13:41;40.30;27.30
65582;DHT22;52231;40.090;18.348;2023-07-29T12:16:09;40.20;27.20
65582;DHT22;52231;40.090;18.348;2023-07-29T12:18:37;40.30;27.30
65582;DHT22;52231;40.090;18.348;2023-07-29T12:21:06;39.70;27.50
65582;DHT22;52231;40.090;18.348;2023-07-29T12:23:34;39.40;27.70
65582;DHT22;52231;40.090;18.348;2023-07-29T12:26:02;39.40;27.60
65582;DHT22;52231;40.090;18.348;2023-07-29T12:28:30;39.40;28.00
65582;DHT22;52231;40.090;18.348;2023-07-29T12:30:59;39.70;27.60
65582;DHT22;52231;40.090;18.348;2023-07-29T12:33:37;39.60;28.00
65582;DHT22;52231;40.090;18.348;2023-07-29T12:36:12;39.50;28.30
65582;DHT22;52231;40.090;18.348;2023-07-29T12:38:43;39.60;27.80
65582;DHT22;52231;40.090;18.348;2023-07-29T12:41:12;38.60;28.50
65582;DHT22;52231;40.090;18.348;2023-07-29T12:43:40;38.30;29.20
65582;DHT22;52231;40.090;18.348;2023-07-29T12:46:08;38.30;29.30
65582;DHT22;52231;40.090;18.348;2023-07-29T12:48:37;38.60;28.60
65582;DHT22;52231;40.090;18.348;2023-07-29T12:51:05;39.00;28.30
65582;DHT22;52231;40.090;18.348;2023-07-29T12:53:33;39.10;28.70
65582;DHT22;52231;40.090;18.348;2023-07-29T12:56:01;39.00;29.10
65582;DHT22;52231;40.090;18.348;2023-07-29T12:58:29;38.90;29.30
65582;DHT22;52231;40.090;18.348;2023-07-29T13:00:57;39.10;29.20
65582;DHT22;52231;40.090;18.348;2023-07-29T13:03:25;39.10;29.10
65582;DHT22;52231;40.090;18.348;2023-07-29T13:05:55;38.70;29.50
65582;DHT22;52231;40.090;18.348;2023-07-29T13:08:25;38.70;29.50
65582;DHT22;52231;40.090;18.348;2023-07-29T13:10:53;38.40;29.40
65582;DHT22;52231;40.090;18.348;2023-07-29T13:13:22;37.90;29.80
65582;DHT22;52231;40.090;18.348;2023-07-29T13:15:50;37.60;30.10
65582;DHT22;52231;40.090;18.348;2023-07-29T13:18:18;38.00;29.60
65582;DHT22;52231;40.090;18.348;2023-07-29T13:20:46;38.10;29.30
65582;DHT22;52231;40.090;18.348;2023-07-29T13:23:15;38.40;29.10
65582;DHT22;52231;40.090;18.348;2023-07-29T13:25:43;38.40;29.10
65582;DHT22;52231;40.090;18.348;2023-07-29T13:28:11;38.50;29.10
65582;DHT22;52231;40.090;18.348;2023-07-29T13:30:41;38.50;29.60
65582;DHT22;52231;40.090;18.348;2023-07-29T13:33:11;38.90;29.00
65582;DHT22;52231;40.090;18.348;2023-07-29T13:35:39;39.30;28.90
65582;DHT22;52231;40.090;18.348;2023-07-29T13:38:08;39.50;28.20
65582;DHT22;52231;40.090;18.348;2023-07-29T13:40:39;39.60;27.90
65582;DHT22;52231;40.090;18.348;2023-07-29T13:43:08;39.50;27.40
65582;DHT22;52231;40.090;18.348;2023-07-29T13:45:36;39.10;27.90
65582;DHT22;52231;40.090;18.348;2023-07-29T13:48:04;38.70;28.50
65582;DHT22;52231;40.090;18.348;2023-07-29T13:50:32;38.40;29.00
65582;DHT22;52231;40.090;18.348;2023-07-29T13:53:00;38.20;29.10
65582;DHT22;52231;40.090;18.348;2023-07-29T13:55:28;38.00;29.70
65582;DHT22;52231;40.090;18.348;2023-07-29T13:57:56;38.00;29.50
65582;DHT22;52231;40.090;18.348;2023-07-29T14:00:25;37.90;29.60
65582;DHT22;52231;40.090;18.348;2023-07-29T14:02:53;37.90;30.10
65582;DHT22;52231;40.090;18.348;2023-07-29T14:05:21;37.90;30.10
65582;DHT22;52231;40.090;18.348;2023-07-29T14:07:49;37.90;29.90
65582;DHT22;52231;40.090;18.348;2023-07-29T14:10:17;37.90;29.80
65582;DHT22;52231;40.090;18.348;2023-07-29T14:12:46;37.30;30.20
65582;DHT22;52231;40.090;18.348;2023-07-29T14:15:15;37.10;30.50
65582;DHT22;52231;40.090;18.348;2023-07-29T14:17:48;36.80;31.20
65582;DHT22;52231;40.090;18.348;2023-07-29T14:20:16;36.80;31.00
65582;DHT22;52231;40.090;18.348;2023-07-29T14:22:44;36.90;31.20
65582;DHT22;52231;40.090;18.348;2023-07-29T14:25:13;36.70;31.00
65582;DHT22;52231;40.090;18.348;2023-07-29T14:27:42;36.80;31.50
65582;DHT22;52231;40.090;18.348;2023-07-29T14:30:10;36.90;30.80
65582;DHT22;52231;40.090;18.348;2023-07-29T14:32:41;36.70;30.80
65582;DHT22;52231;40.090;18.348;2023-07-29T14:35:10;36.80;30.70
65582;DHT22;52231;40.090;18.348;2023-07-29T14:37:38;36.70;31.20
65582;DHT22;52231;40.090;18.348;2023-07-29T14:40:06;36.30;31.10
65582;DHT22;52231;40.090;18.348;2023-07-29T14:42:35;36.20;31.70
65582;DHT22;52231;40.090;18.348;2023-07-29T14:45:03;36.10;31.70
65582;DHT22;52231;40.090;18.348;2023-07-29T14:47:32;36.00;32.00
65582;DHT22;52231;40.090;18.348;2023-07-29T14:50:02;35.80;32.30
65582;DHT22;52231;40.090;18.348;2023-07-29T14:52:30;35.70;32.30
65582;DHT22;52231;40.090;18.348;2023-07-29T14:54:59;35.40;32.80
65582;DHT22;52231;40.090;18.348;2023-07-29T14:57:27;35.30;33.10
65582;DHT22;52231;40.090;18.348;2023-07-29T14:59:56;35.20;33.20
65582;DHT22;52231;40.090;18.348;2023-07-29T15:02:25;35.00;33.60
65582;DHT22;52231;40.090;18.348;2023-07-29T15:04:53;34.80;33.80
65582;DHT22;52231;40.090;18.348;2023-07-29T15:07:21;34.70;34.50
65582;DHT22;52231;40.090;18.348;2023-07-29T15:09:50;34.40;34.90
65582;DHT22;52231;40.090;18.348;2023-07-29T15:12:19;34.20;34.70
65582;DHT22;52231;40.090;18.348;2023-07-29T15:14:47;34.00;35.10
65582;DHT22;52231;40.090;18.348;2023-07-29T15:17:15;33.90;35.10
65582;DHT22;52231;40.090;18.348;2023-07-29T15:19:44;33.90;35.60
65582;DHT22;52231;40.090;18.348;2023-07-29T15:22:12;33.80;35.90
65582;DHT22;52231;40.090;18.348;2023-07-29T15:24:40;33.90;35.60
65582;DHT22;52231;40.090;18.348;2023-07-29T15:27:11;33.90;35.20
65582;DHT22;52231;40.090;18.348;2023-07-29T15:29:39;33.90;35.70
65582;DHT22;52231;40.090;18.348;2023-07-29T15:32:08;33.90;35.70
65582;DHT22;52231;40.090;18.348;2023-07-29T15:34:36;33.90;35.30
65582;DHT22;52231;40.090;18.348;2023-07-29T15:37:04;33.70;35.50
65582;DHT22;52231;40.090;18.348;2023-07-29T15:39:32;33.50;35.70
65582;DHT22;52231;40.090;18.348;2023-07-29T15:42:00;33.40;36.20
65582;DHT22;52231;40.090;18.348;2023-07-29T15:44:28;33.20;37.00
65582;DHT22;52231;40.090;18.348;2023-07-29T15:46:56;33.10;37.10
65582;DHT22;52231;40.090;18.348;2023-07-29T15:49:24;33.00;37.30
65582;DHT22;52231;40.090;18.348;2023-07-29T15:51:53;32.90;37.60
65582;DHT22;52231;40.090;18.348;2023-07-29T15:54:24;32.80;37.90
65582;DHT22;52231;40.090;18.348;2023-07-29T15:56:52;32.70;38.60
65582;DHT22;52231;40.090;18.348;2023-07-29T15:59:20;32.60;38.50
65582;DHT22;52231;40.090;18.348;2023-07-29T16:01:49;32.50;39.00
65582;DHT22;52231;40.090;18.348;2023-07-29T16:04:18;32.40;39.30
65582;DHT22;52231;40.090;18.348;2023-07-29T16:06:46;32.30;39.60
65582;DHT22;52231;40.090;18.348;2023-07-29T16:09:14;32.20;39.30
65582;DHT22;52231;40.090;18.348;2023-07-29T16:11:42;32.10;39.60